Terminal Aerodrome Forecast
Issued by NWS

Home | Current Version | Previous Version | Text Only | Print | Product List | Glossary On
Versions: 1 2 3 4 5 6 7 8 9 10 11 12 13 14
197
FTUS44 KLIX 220520
TAFMCB
TAF
KMCB 220520Z 2206/2306 00000KT P6SM FEW200
     FM221000 00000KT 3SM BR FEW200
      TEMPO 2210/2213 1SM BR FEW008
     FM221300 VRB03KT P6SM FEW150
     FM221800 09006KT P6SM VCTS SCT040CB
     FM230100 00000KT P6SM FEW030=

USA.gov is the U.S. government's official web portal to all federal, state and local government web resources and services.